Louvain-la-Neuve, Belgium
Current Conditions -  °F | °C
As of 8:25 PM on Wednesday 26 Nov 2014 (Local Time) from EBBE Reporting Station
Broken Clouds Broken Clouds  
Wind Chill: 48°   Ceiling: 1800
Heat Index: 48°   Visibility: 4mi
Dew Point: 46°   Wind: 2mph
Humidity: 93%   Direction: NA
Pressure: 29.83"   Gusts: NA
Location:  50.67°N, 4.61°E
Report Text: EBBE 261925Z AUTO VRB02KT 6000 SCT010/// BKN018/// BKN021/// 09/08 Q1010 GRN
Loading
Personal Weather Stations






























Interactive Weather Map New forecast layout! Learn more

10-Day Weather Forecast

Advertisements
Track Severe Weather on mobile